Time;durP1;ratioP1;P1;durP2;ratioP2;P2;SDS_P1;SDS_P2;PMS_P1;PMS_P2;Temp;Humidity;BMP_temperature;BMP_pressure;BME280_temperature;BME280_humidity;BME280_pressure;Samples;Min_cycle;Max_cycle;Signal;HPM_P1;HPM_P2
2022/04/19 00:00:35;;;;;;;15.13;10.40;;;;;;;;;;5073227;28;20046;-69
2022/04/19 00:03:02;;;;;;;11.27;10.07;;;;;;;;;;5067221;28;20074;-69
2022/04/19 00:05:29;;;;;;;13.52;10.98;;;;;;;;;;5064667;28;20090;-69
2022/04/19 00:07:55;;;;;;;14.88;11.10;;;;;;;;;;5073311;28;20102;-68
2022/04/19 00:10:22;;;;;;;16.85;11.88;;;;;;;;;;5079461;28;20083;-71
2022/04/19 00:12:48;;;;;;;20.35;12.95;;;;;;;;;;5073914;28;20559;-68
2022/04/19 00:15:15;;;;;;;16.90;12.93;;;;;;;;;;5060348;28;20057;-68
2022/04/19 00:17:42;;;;;;;14.00;12.18;;;;;;;;;;5069978;28;20188;-68
2022/04/19 00:20:08;;;;;;;15.63;12.85;;;;;;;;;;5090169;28;20382;-68
2022/04/19 00:22:34;;;;;;;17.55;12.20;;;;;;;;;;5079030;28;20447;-68
2022/04/19 00:25:00;;;;;;;19.25;10.88;;;;;;;;;;5080028;28;20049;-68
2022/04/19 00:27:26;;;;;;;16.08;11.43;;;;;;;;;;5079348;28;20040;-68
2022/04/19 00:29:53;;;;;;;14.30;10.68;;;;;;;;;;5056774;28;20473;-68
2022/04/19 00:32:20;;;;;;;17.13;11.07;;;;;;;;;;5080493;28;20381;-68
2022/04/19 00:34:46;;;;;;;14.00;10.48;;;;;;;;;;5064997;28;20290;-68
2022/04/19 00:37:13;;;;;;;17.17;10.48;;;;;;;;;;5062676;28;20295;-70
2022/04/19 00:39:40;;;;;;;11.82;9.30;;;;;;;;;;5065328;28;20051;-69
2022/04/19 00:42:07;;;;;;;15.75;10.85;;;;;;;;;;5085292;28;20043;-69
2022/04/19 00:44:37;;;;;;;14.05;9.85;;;;;;;;;;5063458;28;20055;-69
2022/04/19 00:47:07;;;;;;;14.77;10.93;;;;;;;;;;5086222;28;20051;-68
2022/04/19 00:49:34;;;;;;;12.93;9.52;;;;;;;;;;5066643;28;20556;-69
2022/04/19 00:52:00;;;;;;;13.63;10.75;;;;;;;;;;5081344;28;20062;-68
2022/04/19 00:54:28;;;;;;;14.13;9.98;;;;;;;;;;5081485;28;20079;-69
2022/04/19 00:56:54;;;;;;;17.23;9.95;;;;;;;;;;5077384;28;20509;-69
2022/04/19 00:59:22;;;;;;;13.20;9.98;;;;;;;;;;5080862;28;20036;-69
2022/04/19 01:01:50;;;;;;;13.00;9.30;;;;;;;;;;5082754;28;20032;-69
2022/04/19 01:04:17;;;;;;;12.82;10.02;;;;;;;;;;5073963;28;20045;-68
2022/04/19 01:06:43;;;;;;;12.80;10.23;;;;;;;;;;5083619;28;20287;-68
2022/04/19 01:09:09;;;;;;;14.27;10.98;;;;;;;;;;5080500;28;20501;-68
2022/04/19 01:14:20;;;;;;;15.73;10.30;;;;;;;;;;5074536;28;20040;-69
2022/04/19 01:16:47;;;;;;;11.10;9.57;;;;;;;;;;5063579;28;20050;-69
2022/04/19 01:19:16;;;;;;;13.55;9.45;;;;;;;;;;5058044;28;20047;-69
2022/04/19 01:21:46;;;;;;;13.80;10.10;;;;;;;;;;5076758;28;20059;-69
2022/04/19 01:24:15;;;;;;;11.55;9.13;;;;;;;;;;5084992;28;20038;-69
2022/04/19 01:26:42;;;;;;;14.35;9.88;;;;;;;;;;5077624;28;20051;-68
2022/04/19 01:29:09;;;;;;;14.57;10.18;;;;;;;;;;5063991;28;20559;-69
2022/04/19 01:31:37;;;;;;;15.57;9.57;;;;;;;;;;5077675;28;20537;-68
2022/04/19 01:34:03;;;;;;;12.95;9.18;;;;;;;;;;5064540;28;20040;-69
2022/04/19 01:36:29;;;;;;;13.27;9.73;;;;;;;;;;5069518;28;20461;-69
2022/04/19 01:38:55;;;;;;;11.77;10.02;;;;;;;;;;5081283;28;20067;-68
2022/04/19 01:41:22;;;;;;;13.02;9.93;;;;;;;;;;5063764;28;20119;-69
2022/04/19 01:43:48;;;;;;;13.68;9.75;;;;;;;;;;5077170;28;20032;-69
2022/04/19 01:46:17;;;;;;;13.77;9.63;;;;;;;;;;5055480;28;20041;-69
2022/04/19 01:48:43;;;;;;;15.65;10.35;;;;;;;;;;5042767;28;20057;-69
2022/04/19 01:51:09;;;;;;;12.73;9.63;;;;;;;;;;5075724;28;20036;-68
2022/04/19 01:53:35;;;;;;;12.90;8.48;;;;;;;;;;5055871;28;20135;-68
2022/04/19 01:56:01;;;;;;;11.18;8.80;;;;;;;;;;5045118;28;20060;-69
2022/04/19 01:58:27;;;;;;;10.88;8.82;;;;;;;;;;5067690;28;20093;-69
2022/04/19 02:00:53;;;;;;;13.27;9.07;;;;;;;;;;5081515;28;20046;-68
2022/04/19 02:03:20;;;;;;;12.43;9.40;;;;;;;;;;5081241;28;20049;-68
2022/04/19 02:05:46;;;;;;;12.95;9.25;;;;;;;;;;5069070;28;20610;-68
2022/04/19 02:08:12;;;;;;;12.50;9.98;;;;;;;;;;5086535;28;20069;-68
2022/04/19 02:10:38;;;;;;;13.88;9.48;;;;;;;;;;5083524;28;20039;-68
2022/04/19 02:13:04;;;;;;;15.25;9.32;;;;;;;;;;5062710;28;20370;-68
2022/04/19 02:15:31;;;;;;;11.38;9.13;;;;;;;;;;5084674;28;20078;-68
2022/04/19 02:17:57;;;;;;;13.13;8.40;;;;;;;;;;5058149;28;20119;-68
2022/04/19 02:20:23;;;;;;;13.20;9.57;;;;;;;;;;5071460;28;20043;-69
2022/04/19 02:22:49;;;;;;;15.57;9.43;;;;;;;;;;5072256;28;20064;-68
2022/04/19 02:25:16;;;;;;;14.02;8.77;;;;;;;;;;5083009;28;20463;-68
2022/04/19 02:27:43;;;;;;;13.35;9.10;;;;;;;;;;5079810;28;20097;-68
2022/04/19 02:30:14;;;;;;;16.23;10.07;;;;;;;;;;5088802;28;20140;-68
2022/04/19 02:32:41;;;;;;;13.90;8.90;;;;;;;;;;5061338;28;20507;-68
2022/04/19 02:35:07;;;;;;;12.88;9.65;;;;;;;;;;5084938;28;20279;-68
2022/04/19 02:37:33;;;;;;;11.65;9.35;;;;;;;;;;5064304;28;20044;-68
2022/04/19 02:40:00;;;;;;;11.77;9.73;;;;;;;;;;5060442;28;20059;-68
2022/04/19 02:42:26;;;;;;;11.80;9.55;;;;;;;;;;5085565;28;20047;-69
2022/04/19 02:44:52;;;;;;;12.00;9.25;;;;;;;;;;5082093;28;20086;-69
2022/04/19 02:47:18;;;;;;;13.02;9.82;;;;;;;;;;5064663;28;20048;-69
2022/04/19 02:49:49;;;;;;;12.95;9.18;;;;;;;;;;5075458;28;20032;-69
2022/04/19 02:52:17;;;;;;;9.80;7.93;;;;;;;;;;5086206;28;20048;-69
2022/04/19 02:54:43;;;;;;;13.63;8.35;;;;;;;;;;5077880;28;20059;-68
2022/04/19 02:57:09;;;;;;;12.10;9.18;;;;;;;;;;5078324;28;20052;-68
2022/04/19 02:59:36;;;;;;;14.90;8.88;;;;;;;;;;5065083;28;20067;-68
2022/04/19 03:02:02;;;;;;;11.18;9.10;;;;;;;;;;5059940;28;20051;-69
2022/04/19 03:04:29;;;;;;;14.70;9.57;;;;;;;;;;5082005;28;20044;-69
2022/04/19 03:06:55;;;;;;;15.60;9.85;;;;;;;;;;5055826;28;20409;-68
2022/04/19 03:09:21;;;;;;;12.18;9.32;;;;;;;;;;5081693;28;20055;-68
2022/04/19 03:11:47;;;;;;;12.93;9.18;;;;;;;;;;5077821;28;20036;-68
2022/04/19 03:14:13;;;;;;;15.70;10.57;;;;;;;;;;5067499;28;20040;-69
2022/04/19 03:16:39;;;;;;;16.70;10.32;;;;;;;;;;5064342;28;20498;-69
2022/04/19 03:19:05;;;;;;;17.02;10.93;;;;;;;;;;5072119;28;20422;-68
2022/04/19 03:21:32;;;;;;;16.30;11.02;;;;;;;;;;5065042;28;20044;-69
2022/04/19 03:29:27;;;;;;;14.43;11.07;;;;;;;;;;5077901;28;20043;-69
2022/04/19 03:31:55;;;;;;;18.85;10.25;;;;;;;;;;5077181;28;20521;-68
2022/04/19 03:34:21;;;;;;;15.05;10.85;;;;;;;;;;5081128;28;20127;-68
2022/04/19 03:36:47;;;;;;;20.92;12.50;;;;;;;;;;5063659;28;20044;-68
2022/04/19 03:39:13;;;;;;;20.02;11.63;;;;;;;;;;5083793;28;20507;-68
2022/04/19 03:41:40;;;;;;;14.65;11.55;;;;;;;;;;5080344;28;20051;-68
2022/04/19 03:44:07;;;;;;;17.83;11.93;;;;;;;;;;5076112;28;20041;-68
2022/04/19 03:47:07;;;;;;;19.45;11.52;;;;;;;;;;5086246;28;20135;-70
2022/04/19 03:49:19;;;;;;;16.35;10.93;;;;;;;;;;5062080;28;20079;-70
2022/04/19 03:51:45;;;;;;;15.18;10.80;;;;;;;;;;5065458;28;20072;-70
2022/04/19 03:54:11;;;;;;;18.20;11.50;;;;;;;;;;5081688;28;20063;-69
2022/04/19 03:56:38;;;;;;;16.83;12.60;;;;;;;;;;5063341;28;20126;-69
2022/04/19 03:59:06;;;;;;;20.15;12.43;;;;;;;;;;5084550;28;20489;-69
2022/04/19 04:01:32;;;;;;;18.52;11.93;;;;;;;;;;5059865;28;20044;-69
2022/04/19 04:03:58;;;;;;;16.05;11.38;;;;;;;;;;5085041;28;20044;-69
2022/04/19 04:06:25;;;;;;;17.25;10.80;;;;;;;;;;5047779;28;20103;-69
2022/04/19 04:08:51;;;;;;;16.52;10.57;;;;;;;;;;5065906;28;20394;-69
2022/04/19 04:11:18;;;;;;;17.63;12.65;;;;;;;;;;5065181;28;20039;-69
2022/04/19 04:13:45;;;;;;;19.35;12.15;;;;;;;;;;5084579;28;20044;-69
2022/04/19 04:16:13;;;;;;;16.15;10.90;;;;;;;;;;5053921;28;20052;-69
2022/04/19 04:18:40;;;;;;;18.13;10.88;;;;;;;;;;5077578;28;20044;-69
2022/04/19 04:21:07;;;;;;;15.23;10.63;;;;;;;;;;5079139;28;20460;-69
2022/04/19 04:23:33;;;;;;;19.15;11.82;;;;;;;;;;5082275;28;20036;-69
2022/04/19 04:25:59;;;;;;;20.77;12.93;;;;;;;;;;5082561;28;20067;-69
2022/04/19 04:28:26;;;;;;;17.25;11.55;;;;;;;;;;5076440;28;20044;-69
2022/04/19 04:30:52;;;;;;;19.17;12.75;;;;;;;;;;5077602;28;20040;-69
2022/04/19 04:33:18;;;;;;;17.02;11.95;;;;;;;;;;5083388;28;20093;-69
2022/04/19 04:35:44;;;;;;;18.35;12.55;;;;;;;;;;5057556;28;20047;-68
2022/04/19 04:38:11;;;;;;;18.77;12.25;;;;;;;;;;5085719;28;20040;-69
2022/04/19 04:40:38;;;;;;;20.48;12.05;;;;;;;;;;5086821;28;20068;-69
2022/04/19 04:43:04;;;;;;;19.00;13.23;;;;;;;;;;5084400;28;20485;-69
2022/04/19 04:45:30;;;;;;;17.45;11.38;;;;;;;;;;5068805;28;20067;-69
2022/04/19 04:50:41;;;;;;;16.15;10.68;;;;;;;;;;5056285;28;20044;-69
2022/04/19 04:53:07;;;;;;;17.55;11.23;;;;;;;;;;5076333;28;20464;-69
2022/04/19 04:55:33;;;;;;;15.10;10.70;;;;;;;;;;5058351;28;20075;-69
2022/04/19 04:58:01;;;;;;;20.90;11.15;;;;;;;;;;5063461;28;20509;-69
2022/04/19 05:00:28;;;;;;;14.75;11.02;;;;;;;;;;5089066;28;20075;-69
2022/04/19 05:02:55;;;;;;;16.88;11.48;;;;;;;;;;5062122;28;20986;-70
2022/04/19 05:05:22;;;;;;;17.30;11.25;;;;;;;;;;5082060;28;20044;-69
2022/04/19 05:07:48;;;;;;;18.63;10.10;;;;;;;;;;5073793;28;20663;-69
2022/04/19 05:10:14;;;;;;;15.70;11.10;;;;;;;;;;5080269;28;20055;-69
2022/04/19 05:12:41;;;;;;;17.83;12.20;;;;;;;;;;5077520;28;20040;-69
2022/04/19 05:15:07;;;;;;;18.15;10.73;;;;;;;;;;5055642;28;20086;-69
2022/04/19 05:17:34;;;;;;;14.10;9.38;;;;;;;;;;5077178;28;20153;-69
2022/04/19 05:20:00;;;;;;;17.63;10.05;;;;;;;;;;5062723;28;20183;-69
2022/04/19 05:22:27;;;;;;;16.40;11.00;;;;;;;;;;5081403;28;20067;-69
2022/04/19 05:24:53;;;;;;;18.35;10.48;;;;;;;;;;5086238;28;20533;-69
2022/04/19 05:27:19;;;;;;;17.83;11.15;;;;;;;;;;5076801;28;20069;-69
2022/04/19 05:29:45;;;;;;;12.10;9.63;;;;;;;;;;5083028;28;20032;-69
2022/04/19 05:32:11;;;;;;;13.70;9.43;;;;;;;;;;5084469;28;20325;-69
2022/04/19 05:34:38;;;;;;;14.95;9.68;;;;;;;;;;5061464;28;20040;-69
2022/04/19 05:37:04;;;;;;;15.05;8.73;;;;;;;;;;5042600;28;20052;-69
2022/04/19 05:39:30;;;;;;;13.48;10.23;;;;;;;;;;5079545;28;20482;-69
2022/04/19 05:41:56;;;;;;;13.75;10.48;;;;;;;;;;5062192;28;20109;-69
2022/04/19 05:44:22;;;;;;;17.25;10.60;;;;;;;;;;5075615;28;20386;-69
2022/04/19 05:46:51;;;;;;;14.70;9.40;;;;;;;;;;5075986;28;20040;-70
2022/04/19 05:49:17;;;;;;;13.80;9.93;;;;;;;;;;5078922;28;20043;-69
2022/04/19 05:51:43;;;;;;;12.80;7.97;;;;;;;;;;5066060;28;20489;-69
2022/04/19 05:54:09;;;;;;;11.18;8.77;;;;;;;;;;5077372;28;20110;-69
2022/04/19 05:56:36;;;;;;;12.93;8.80;;;;;;;;;;5079836;28;20036;-69
2022/04/19 05:59:02;;;;;;;12.15;9.27;;;;;;;;;;5066743;28;20063;-69
2022/04/19 06:04:51;;;;;;;14.65;9.20;;;;;;;;;;5078679;28;20050;-69
2022/04/19 06:06:59;;;;;;;15.60;9.02;;;;;;;;;;5067858;28;20046;-69
2022/04/19 06:09:25;;;;;;;12.65;8.18;;;;;;;;;;5079424;28;20501;-69
2022/04/19 06:11:51;;;;;;;11.77;8.27;;;;;;;;;;5074472;28;20040;-69
2022/04/19 06:14:17;;;;;;;15.68;9.25;;;;;;;;;;5037476;28;20490;-69
2022/04/19 06:16:44;;;;;;;13.10;8.77;;;;;;;;;;5059546;28;20160;-69
2022/04/19 06:19:10;;;;;;;10.95;7.97;;;;;;;;;;5054595;28;20032;-69
2022/04/19 06:21:36;;;;;;;13.93;9.18;;;;;;;;;;5077663;28;20024;-69
2022/04/19 06:24:04;;;;;;;13.18;8.95;;;;;;;;;;5081429;28;20044;-69
2022/04/19 06:26:30;;;;;;;13.32;8.68;;;;;;;;;;5059105;28;20068;-69
2022/04/19 06:28:56;;;;;;;11.20;8.00;;;;;;;;;;5065099;28;20047;-69
2022/04/19 06:31:22;;;;;;;12.57;8.38;;;;;;;;;;5064081;28;20051;-69
2022/04/19 06:33:48;;;;;;;15.40;9.45;;;;;;;;;;5079484;28;20053;-69
2022/04/19 06:36:14;;;;;;;12.77;8.45;;;;;;;;;;5084423;28;20039;-69
2022/04/19 06:38:40;;;;;;;14.60;9.32;;;;;;;;;;5077671;28;20126;-69
2022/04/19 06:41:09;;;;;;;12.73;7.63;;;;;;;;;;5065007;28;20040;-69
2022/04/19 06:43:36;;;;;;;11.43;7.45;;;;;;;;;;5061670;28;20242;-69
2022/04/19 06:46:02;;;;;;;13.90;7.60;;;;;;;;;;5082871;28;20117;-69
2022/04/19 06:48:29;;;;;;;11.52;7.72;;;;;;;;;;5086270;28;20044;-69
2022/04/19 06:50:55;;;;;;;13.52;8.70;;;;;;;;;;5062573;28;20433;-69
2022/04/19 06:53:21;;;;;;;15.35;8.88;;;;;;;;;;5087648;28;20551;-69
2022/04/19 06:55:47;;;;;;;11.43;6.97;;;;;;;;;;5071847;28;20278;-69
2022/04/19 06:58:14;;;;;;;11.70;7.45;;;;;;;;;;5089809;28;20081;-69
2022/04/19 07:00:40;;;;;;;11.43;7.43;;;;;;;;;;5071864;28;20048;-69
2022/04/19 07:03:06;;;;;;;11.40;7.65;;;;;;;;;;5088481;28;20133;-69
2022/04/19 07:05:32;;;;;;;13.45;8.27;;;;;;;;;;5068072;28;20051;-69
2022/04/19 07:07:59;;;;;;;13.13;7.63;;;;;;;;;;5081851;28;20092;-69
2022/04/19 07:10:25;;;;;;;10.80;7.30;;;;;;;;;;5085458;28;20040;-69
2022/04/19 07:12:51;;;;;;;11.85;7.72;;;;;;;;;;5063636;28;20072;-69
2022/04/19 07:15:17;;;;;;;11.90;7.43;;;;;;;;;;5068746;28;20394;-69
2022/04/19 07:17:43;;;;;;;12.50;7.60;;;;;;;;;;5063056;28;20151;-69
2022/04/19 07:28:24;;;;;;;11.85;7.15;;;;;;;;;;5079042;28;20048;-68
2022/04/19 07:30:51;;;;;;;12.02;7.53;;;;;;;;;;5041676;28;20044;-68
2022/04/19 07:33:17;;;;;;;11.45;7.32;;;;;;;;;;5080818;28;20058;-69
2022/04/19 07:35:44;;;;;;;10.45;7.75;;;;;;;;;;5071666;28;20561;-69
2022/04/19 07:38:10;;;;;;;15.98;8.18;;;;;;;;;;5085423;28;20398;-69
2022/04/19 07:40:36;;;;;;;11.95;7.45;;;;;;;;;;5067974;28;20093;-69
2022/04/19 07:43:03;;;;;;;12.18;7.90;;;;;;;;;;5062583;28;20144;-69
2022/04/19 07:45:30;;;;;;;11.07;7.45;;;;;;;;;;5065992;28;20039;-69
2022/04/19 07:47:56;;;;;;;13.65;7.90;;;;;;;;;;5082915;28;20036;-69
2022/04/19 07:50:22;;;;;;;11.07;7.68;;;;;;;;;;5071285;28;20076;-69
2022/04/19 07:52:48;;;;;;;11.40;8.80;;;;;;;;;;5065819;28;20118;-69
2022/04/19 07:55:15;;;;;;;12.85;7.47;;;;;;;;;;5037367;28;20131;-69
2022/04/19 07:57:41;;;;;;;12.18;7.85;;;;;;;;;;5059922;28;20044;-69
2022/04/19 08:00:07;;;;;;;11.55;7.90;;;;;;;;;;5076074;28;20050;-69
2022/04/19 08:02:33;;;;;;;12.73;8.50;;;;;;;;;;5055958;28;20040;-69
2022/04/19 08:05:00;;;;;;;12.27;7.25;;;;;;;;;;5087611;28;20511;-69
2022/04/19 08:07:26;;;;;;;11.10;7.40;;;;;;;;;;5070232;28;20117;-69
2022/04/19 08:09:52;;;;;;;13.10;6.90;;;;;;;;;;5086480;28;20404;-69
2022/04/19 08:12:19;;;;;;;13.85;7.72;;;;;;;;;;5068852;28;20130;-69
2022/04/19 08:14:45;;;;;;;10.32;6.57;;;;;;;;;;5086920;28;20131;-69
2022/04/19 08:17:11;;;;;;;9.75;6.38;;;;;;;;;;5085050;28;20085;-69
2022/04/19 08:19:37;;;;;;;9.30;6.57;;;;;;;;;;5067321;28;20044;-69
2022/04/19 08:22:03;;;;;;;12.88;6.32;;;;;;;;;;5088250;28;20047;-69
2022/04/19 08:24:29;;;;;;;9.45;6.72;;;12.00;62.90;;;;;;5086081;28;20067;-68
2022/04/19 08:26:55;;;;;;;10.93;5.78;;;13.10;86.90;;;;;;5060702;28;20567;-68
2022/04/19 08:29:21;;;;;;;6.93;5.93;;;;;;;;;;5064795;28;20407;-69
2022/04/19 08:31:47;;;;;;;10.02;5.00;;;;;;;;;;5083921;28;20518;-69
2022/04/19 08:34:13;;;;;;;14.00;5.20;;;;;;;;;;5068741;28;20084;-69
2022/04/19 08:36:39;;;;;;;7.25;4.75;;;;;;;;;;5086715;28;20047;-69
2022/04/19 08:39:05;;;;;;;6.50;4.22;;;;;;;;;;5077313;28;20037;-69
2022/04/19 08:41:31;;;;;;;6.50;4.43;;;;;;;;;;5070347;28;20359;-69
2022/04/19 08:43:58;;;;;;;8.18;4.88;;;;;;;;;;5065383;28;20043;-69
2022/04/19 08:46:26;;;;;;;8.32;5.07;;;;;;;;;;5068330;28;20509;-69
2022/04/19 08:48:53;;;;;;;7.22;4.65;;;;;;;;;;5048016;28;20028;-69
2022/04/19 08:51:21;;;;;;;8.00;4.32;;;;;;;;;;5084866;28;20027;-68
2022/04/19 08:59:26;;;;;;;6.82;3.30;;;;;;;;;;5065180;28;20047;-69
2022/04/19 09:01:53;;;;;;;6.68;4.07;;;;;;;;;;5083850;28;20097;-69
2022/04/19 09:04:22;;;;;;;6.05;3.85;;;;;;;;;;5085837;28;20054;-68
2022/04/19 09:06:54;;;;;;;5.40;3.35;;;;;;;;;;5086874;28;20036;-68
2022/04/19 09:09:34;;;;;;;5.47;3.28;;;;;;;;;;5085046;28;20032;-68
2022/04/19 09:12:26;;;;;;;4.75;2.97;;;;;;;;;;5069570;28;20551;-68
2022/04/19 09:14:56;;;;;;;11.23;3.22;;;;;;;;;;5080163;28;20417;-69
2022/04/19 09:17:30;;;;;;;7.05;3.45;;;;;;;;;;5067228;28;20405;-68
2022/04/19 09:20:09;;;;;;;7.57;4.13;;;;;;;;;;5064710;28;20052;-68
2022/04/19 09:22:37;;;;;;;5.50;4.00;;;;;;;;;;5086194;28;20051;-68
2022/04/19 09:25:20;;;;;;;5.32;3.65;;;;;;;;;;5086575;28;20040;-69
2022/04/19 09:27:46;;;;;;;6.97;4.28;;;;;;;;;;5048527;28;20064;-68
2022/04/19 09:30:17;;;;;;;8.30;4.32;;;;;;;;;;5064646;28;20032;-69
2022/04/19 09:33:00;;;;;;;6.88;3.97;;;;;;;;;;5048733;28;20071;-69
2022/04/19 09:35:29;;;;;;;7.78;4.10;;;;;;;;;;5078730;28;20079;-69
2022/04/19 09:37:56;;;;;;;7.35;4.55;;;;;;;;;;5064393;28;20040;-68
2022/04/19 09:40:32;;;;;;;5.43;4.00;;;;;;;;;;5061480;28;20075;-68
2022/04/19 09:43:06;;;;;;;6.40;3.60;;;;;;;;;;5082575;28;20044;-69
2022/04/19 09:45:44;;;;;;;4.22;2.80;;;;;;;;;;5057187;28;20048;-68
2022/04/19 09:48:15;;;;;;;3.15;2.45;;;;;;;;;;5080090;28;20486;-68
2022/04/19 09:50:47;;;;;;;3.58;2.90;;;;;;;;;;5073309;28;20148;-69
2022/04/19 09:53:17;;;;;;;3.83;2.83;;;;;;;;;;5063394;28;20072;-69
2022/04/19 09:55:50;;;;;;;5.00;2.60;;;;;;;;;;5077149;28;20048;-69
2022/04/19 09:58:17;;;;;;;9.88;1.83;;;;;;;;;;5059359;28;20048;-69
2022/04/19 10:00:44;;;;;;;3.55;1.60;;;;;;;;;;5071532;28;20183;-69
2022/04/19 10:08:42;;;;;;;5.90;1.90;;;;;;;;;;5057600;28;20043;-68
2022/04/19 10:11:09;;;;;;;3.03;1.67;;;;;;;;;;5058150;28;20519;-69
2022/04/19 10:13:38;;;;;;;2.05;1.40;;;;;;;;;;5073533;28;20083;-68
2022/04/19 10:16:09;;;;;;;2.35;1.30;;;;;;;;;;5058866;28;20050;-68
2022/04/19 10:18:35;;;;;;;3.42;1.70;;;;;;;;;;5074853;28;20105;-68
2022/04/19 10:21:02;;;;;;;3.75;1.20;;;;;;;;;;5063034;28;20290;-69
2022/04/19 10:23:35;;;;;;;3.35;1.20;;;;;;;;;;5073942;28;20110;-68
2022/04/19 10:26:20;;;;;;;1.65;1.10;;;;;;;;;;5064268;28;20119;-68
2022/04/19 10:28:54;;;;;;;1.40;0.90;;;;;;;;;;5065760;28;20061;-68
2022/04/19 10:31:28;;;;;;;3.75;0.93;;;;;;;;;;5059540;28;20048;-68
2022/04/19 10:33:54;;;;;;;1.17;1.00;;;;;;;;;;5081134;28;20116;-69
2022/04/19 10:36:20;;;;;;;2.97;0.82;;;;;;;;;;5081712;28;20117;-68
2022/04/19 10:39:06;;;;;;;2.40;1.45;;;;;;;;;;5067122;28;20043;-68
2022/04/19 10:41:47;;;;;;;1.55;0.90;;;;;;;;;;5085741;28;20435;-69
2022/04/19 10:44:49;;;;;;;1.75;1.27;;;;;;;;;;5085452;28;20044;-69
2022/04/19 10:47:17;;;;;;;2.20;1.20;;;;;;;;;;4980079;28;20060;-69
2022/04/19 10:49:58;;;;;;;3.53;1.42;;;;;;;;;;5049684;28;20050;-69
2022/04/19 10:52:37;;;;;;;3.17;2.00;;;;;;;;;;5060388;28;20105;-68
2022/04/19 10:55:06;;;;;;;4.95;1.52;;;;;;;;;;5037542;28;20130;-69
2022/04/19 11:00:27;;;;;;;6.95;1.48;;;;;;;;;;5045232;28;20060;-68
2022/04/19 11:03:20;;;;;;;2.72;1.55;;;;;;;;;;5047842;28;20044;-68
2022/04/19 11:05:46;;;;;;;6.50;1.80;;;;;;;;;;5038594;28;20060;-69
2022/04/19 11:08:30;;;;;;;3.75;2.58;;;;;;;;;;5021239;28;20411;-69
2022/04/19 11:10:56;;;;;;;6.93;1.63;;;;;;;;;;5041421;28;20091;-69
2022/04/19 11:13:23;;;;;;;2.67;1.58;;;;;;;;;;5046756;28;20036;-69
2022/04/19 11:16:13;;;;;;;5.97;2.03;;;;;;;;;;5038504;28;20037;-69
2022/04/19 11:18:40;;;;;;;4.10;1.67;;;;;;;;;;5044608;28;20490;-69
2022/04/19 11:21:12;;;;;;;6.28;2.33;;;;;;;;;;5038689;28;20522;-69
2022/04/19 11:23:49;;;;;;;5.82;2.15;;;;;;;;;;5050693;28;20732;-69
2022/04/19 11:26:31;;;;;;;3.58;1.65;;;;;;;;;;5048420;28;20048;-69
2022/04/19 11:29:09;;;;;;;3.05;1.65;;;;;;;;;;5048226;28;20037;-69
2022/04/19 11:31:36;;;;;;;3.20;1.80;;;;;;;;;;5044446;28;20052;-69
2022/04/19 11:34:15;;;;;;;2.92;1.33;;;;;;;;;;5043488;28;20530;-69
2022/04/19 11:36:42;;;;;;;2.38;1.30;;;;;;;;;;5040083;28;20521;-69
2022/04/19 11:39:08;;;;;;;2.13;1.48;;;;;;;;;;5049073;28;20569;-69
2022/04/19 11:46:51;;;;;;;3.47;1.63;;;;;;;;;;5046684;28;20076;-69
2022/04/19 11:49:21;;;;;;;4.45;1.98;;;;;;;;;;5049337;28;20469;-69
2022/04/19 11:51:47;;;;;;;3.17;2.08;;;;;;;;;;5047679;28;20096;-69
2022/04/19 11:54:20;;;;;;;6.88;1.98;;;;;;;;;;5058786;28;20044;-69
2022/04/19 11:56:50;;;;;;;6.47;2.28;;;;;;;;;;5047063;28;20057;-69
2022/04/19 11:59:16;;;;;;;2.80;1.88;;;;;;;;;;5066218;28;20113;-69
2022/04/19 12:01:49;;;;;;;4.18;1.63;;;;;;;;;;5064859;28;20160;-69
2022/04/19 12:04:15;;;;;;;2.40;1.48;;;;;;;;;;5064101;28;20052;-69
2022/04/19 12:06:49;;;;;;;4.80;1.80;;;;;;;;;;5065891;28;20036;-69
2022/04/19 12:09:17;;;;;;;4.75;2.42;;;;;;;;;;5062596;28;20047;-69
2022/04/19 12:11:43;;;;;;;3.88;2.95;;;;;;;;;;5043101;28;20083;-69
2022/04/19 12:14:09;;;;;;;2.85;1.95;;;;;;;;;;5062087;28;20041;-69
2022/04/19 12:16:38;;;;;;;3.45;1.90;;;;;;;;;;5067849;28;20119;-69
2022/04/19 12:19:07;;;;;;;3.65;2.17;;;;;;;;;;5067008;28;20040;-69
2022/04/19 12:21:53;;;;;;;3.00;2.08;;;;;;;;;;5061084;28;20045;-69
2022/04/19 12:24:19;;;;;;;3.50;1.90;;;;;;;;;;5067087;28;20042;-69
2022/04/19 12:26:49;;;;;;;3.60;2.22;;;;;;;;;;5049816;28;20501;-69
2022/04/19 12:29:16;;;;;;;3.38;1.98;;;;;;;;;;5066656;28;20048;-69
2022/04/19 12:31:50;;;;;;;3.75;1.77;;;;;;;;;;5055946;28;20032;-69
2022/04/19 12:34:16;;;;;;;3.35;2.35;;;;;;;;;;5061449;28;20049;-69
2022/04/19 12:36:42;;;;;;;6.30;2.88;;;;;;;;;;5065273;28;20048;-69
2022/04/19 12:39:09;;;;;;;7.40;2.65;;;;;;;;;;5063809;28;20394;-69
2022/04/19 12:41:36;;;;;;;4.57;2.53;;;;;;;;;;5060489;28;20080;-69
2022/04/19 12:44:02;;;;;;;5.85;2.72;;;;;;;;;;5061880;28;20045;-69
2022/04/19 12:46:30;;;;;;;2.80;2.20;;;;;;;;;;5058123;28;20037;-69
2022/04/19 12:48:57;;;;;;;8.77;1.88;;;;;;;;;;5056007;28;20270;-69
2022/04/19 12:51:27;;;;;;;4.35;1.85;;;;;;;;;;5068675;28;20500;-69
2022/04/19 12:54:06;;;;;;;4.32;2.00;;;;;;;;;;5077593;28;20501;-70
2022/04/19 12:56:33;;;;;;;3.78;2.50;;;;;;;;;;5083615;28;20124;-70
2022/04/19 12:58:59;;;;;;;4.63;2.42;;;;;;;;;;5078470;28;20129;-70
2022/04/19 13:01:26;;;;;;;4.28;2.20;;;;;;;;;;5074765;28;20036;-69
2022/04/19 13:03:52;;;;;;;7.57;2.92;;;;;;;;;;5090153;28;20056;-69
2022/04/19 13:14:33;;;;;;;6.28;3.10;;;;;;;;;;5089736;28;20431;-70
2022/04/19 13:17:00;;;;;;;6.70;3.03;;;;;;;;;;5084293;28;20144;-70
2022/04/19 13:19:26;;;;;;;6.88;2.58;;;;;;;;;;5078389;28;20047;-70
2022/04/19 13:21:52;;;;;;;4.57;2.58;;;;;;;;;;5084368;28;20036;-69
2022/04/19 13:24:18;;;;;;;3.35;2.22;;;;;;;;;;5086484;28;20027;-70
2022/04/19 13:26:44;;;;;;;6.40;2.67;;;;;;;;;;5087657;28;20404;-70
2022/04/19 13:29:11;;;;;;;4.20;2.55;;;;;;;;;;5066882;28;20047;-70
2022/04/19 13:31:37;;;;;;;3.45;2.42;;;;;;;;;;5085183;28;20535;-70
2022/04/19 13:34:04;;;;;;;3.30;2.17;;;;;;;;;;5086993;28;20040;-69
2022/04/19 13:36:30;;;;;;;3.53;2.10;;;;;;;;;;5065687;28;21346;-70
2022/04/19 13:38:56;;;;;;;3.95;2.08;;;;;;;;;;5067137;28;20060;-70
2022/04/19 13:41:23;;;;;;;3.10;2.30;;;;;;;;;;5068863;28;20036;-70
2022/04/19 13:43:49;;;;;;;3.50;2.20;;;;;;;;;;5068521;28;20051;-70
2022/04/19 13:46:15;;;;;;;4.72;2.20;;;;;;;;;;5086807;28;20035;-70
2022/04/19 13:48:41;;;;;;;4.00;1.88;;;;;;;;;;5068203;28;20577;-70
2022/04/19 13:51:07;;;;;;;3.95;1.75;;;;;;;;;;5086877;28;20032;-70
2022/04/19 13:53:33;;;;;;;3.85;2.00;;;;;;;;;;5088428;28;20241;-70
2022/04/19 13:55:59;;;;;;;4.47;1.65;;;;;;;;;;5091533;28;20056;-70
2022/04/19 13:58:25;;;;;;;3.78;2.00;;;;;;;;;;5070555;28;20097;-69
2022/04/19 14:00:52;;;;;;;3.28;1.92;;;;;;;;;;5091030;28;20105;-70
2022/04/19 14:03:18;;;;;;;2.72;1.73;;;;;;;;;;5088725;28;20516;-70
2022/04/19 14:05:44;;;;;;;3.45;2.22;;;;;;;;;;5075225;28;20464;-69
2022/04/19 14:08:11;;;;;;;3.92;2.60;;;;;;;;;;5081003;28;20049;-70
2022/04/19 14:10:37;;;;;;;2.80;1.73;;;;;;;;;;5077158;28;20036;-70
2022/04/19 14:13:03;;;;;;;3.45;2.35;;;;;;;;;;5084613;28;20418;-70
2022/04/19 14:15:29;;;;;;;3.83;2.00;;;;;;;;;;5072780;28;20044;-70
2022/04/19 14:17:55;;;;;;;5.35;2.42;;;;;;;;;;5069049;28;20464;-70
2022/04/19 14:20:22;;;;;;;4.47;2.35;;;;;;;;;;5064724;28;20044;-70
2022/04/19 14:22:48;;;;;;;6.15;2.75;;;;;;;;;;5068568;28;20052;-70
2022/04/19 14:25:14;;;;;;;5.65;3.03;;;;;;;;;;5085624;28;20032;-69
2022/04/19 14:27:40;;;;;;;3.35;1.75;;;;;;;;;;5091127;28;20044;-70
2022/04/19 14:35:36;;;;;;;3.45;1.65;;;;;;;;;;5059677;28;20058;-69
2022/04/19 14:38:02;;;;;;;3.72;2.40;;;;;;;;;;5074901;28;20098;-70
2022/04/19 14:40:28;;;;;;;3.13;2.20;;;;;;;;;;5084406;28;20044;-70
2022/04/19 14:42:54;;;;;;;4.13;2.95;;;;;;;;;;5082198;28;20502;-70
2022/04/19 14:45:21;;;;;;;3.92;2.70;;;;;;;;;;5065017;28;20198;-70
2022/04/19 14:47:47;;;;;;;4.18;3.10;;;;;;;;;;5081960;28;20080;-69
2022/04/19 14:50:14;;;;;;;16.98;3.30;;;;;;;;;;5044218;28;20093;-70
2022/04/19 14:52:40;;;;;;;5.03;2.67;;;;;;;;;;5048269;28;20043;-70
2022/04/19 14:55:07;;;;;;;9.18;3.67;;;;;;;;;;5084123;28;20189;-69
2022/04/19 14:57:33;;;;;;;5.28;2.78;;;;;;;;;;5085150;28;20419;-70
2022/04/19 15:00:00;;;;;;;6.88;4.32;;;;;;;;;;5086278;28;20390;-70
2022/04/19 15:02:27;;;;;;;9.02;3.80;;;;;;;;;;5063881;28;20469;-70
2022/04/19 15:04:53;;;;;;;8.80;5.03;;;;;;;;;;5083971;28;20043;-70
2022/04/19 15:07:21;;;;;;;6.45;5.03;;;;;;;;;;5085103;28;20078;-70
2022/04/19 15:09:48;;;;;;;8.35;5.15;;;;;;;;;;5068290;28;20443;-70
2022/04/19 15:12:16;;;;;;;6.07;4.65;;;;;;;;;;5087707;28;20351;-70
2022/04/19 15:14:42;;;;;;;9.32;4.57;;;;;;;;;;5053936;28;20559;-70
2022/04/19 15:17:08;;;;;;;9.20;5.03;;;;;;;;;;5087848;28;20115;-70
2022/04/19 15:19:35;;;;;;;7.55;4.93;;;;;;;;;;5082519;28;20569;-70
2022/04/19 15:22:01;;;;;;;9.00;5.13;;;;;;;;;;5050932;28;20092;-70
2022/04/19 15:24:27;;;;;;;10.50;4.85;;;;;;;;;;5069002;28;20043;-70
2022/04/19 15:26:53;;;;;;;11.80;5.20;;;;;;;;;;5066764;28;20090;-70
2022/04/19 15:29:20;;;;;;;18.63;5.85;;;;;;;;;;5084206;28;20072;-70